Time;durP1;ratioP1;P1;durP2;ratioP2;P2;SDS_P1;SDS_P2;PMS_P1;PMS_P2;Temp;Humidity;BMP_temperature;BMP_pressure;BME280_temperature;BME280_humidity;BME280_pressure;Samples;Min_cycle;Max_cycle;Signal;HPM_P1;HPM_P2
2021/10/01 00:00:05;;;;;;;;;1.00;1.00;;;;;;;;2772778;51;8769;-60
2021/10/01 00:02:31;;;;;;;;;1.80;1.00;;;;;;;;2772777;51;8765;-58
2021/10/01 00:04:57;;;;;;;;;2.00;2.00;;;;;;;;2772718;51;8793;-59
2021/10/01 00:07:22;;;;;;;;;3.00;1.00;;;;;;;;2772731;51;8761;-58
2021/10/01 00:09:48;;;;;;;;;0.00;0.00;;;;;;;;2772609;51;8793;-58
2021/10/01 00:12:14;;;;;;;;;2.33;1.00;;;;;;;;2773112;51;8757;-58
2021/10/01 00:14:39;;;;;;;;;5.67;1.33;;;;;;;;2773904;51;9529;-59
2021/10/01 00:17:05;;;;;;;;;1.00;0.33;;;;;;;;2773492;51;8777;-58
2021/10/01 00:19:34;;;;;;;;;0.00;0.00;;;;;;;;2773601;51;10961;-59
2021/10/01 00:22:02;;;;;;;;;1.00;1.00;;;;;;;;2773643;51;11444;-60
2021/10/01 00:24:28;;;;;;;;;0.40;0.40;;;;;;;;2773465;51;8877;-59
2021/10/01 00:26:54;;;;;;;;;1.00;1.00;;;;;;;;2773865;51;8783;-60
2021/10/01 00:29:20;;;;;;;;;1.00;1.00;;;;;;;;2773006;51;8777;-60
2021/10/01 00:31:45;;;;;;;;;1.00;1.00;;;;;;;;2773915;51;8781;-59
2021/10/01 00:34:11;;;;;;;;;0.67;0.67;;;;;;;;2773419;51;8795;-60
2021/10/01 00:36:36;;;;;;;;;2.00;1.00;;;;;;;;2773545;51;8781;-59
2021/10/01 00:39:03;;;;;;;;;1.00;1.00;;;;;;;;2774162;51;8781;-59
2021/10/01 00:41:30;;;;;;;;;0.80;0.80;;;;;;;;2773605;51;8915;-59
2021/10/01 00:43:56;;;;;;;;;1.75;1.50;;;;;;;;2773780;51;8784;-59
2021/10/01 00:46:22;;;;;;;;;0.67;0.67;;;;;;;;2773395;51;8880;-60
2021/10/01 00:48:47;;;;;;;;;1.00;1.00;;;;;;;;2773296;51;8799;-59
2021/10/01 00:51:13;;;;;;;;;1.00;1.00;;;;;;;;2773629;51;10589;-58
2021/10/01 00:53:39;;;;;;;;;1.00;1.00;;;;;;;;2773765;51;8891;-59
2021/10/01 00:56:04;;;;;;;;;2.00;1.00;;;;;;;;2773396;51;8905;-59
2021/10/01 00:58:30;;;;;;;;;0.00;0.00;;;;;;;;2773446;51;8764;-60
2021/10/01 01:03:28;;;;;;;;;0.60;0.60;;;;;;;;2773635;51;8776;-63
2021/10/01 01:06:04;;;;;;;;;1.33;1.33;;;;;;;;2773644;51;8785;-61
2021/10/01 01:08:34;;;;;;;;;1.00;1.00;;;;;;;;2773563;51;8773;-58
2021/10/01 01:11:06;;;;;;;;;0.75;0.75;;;;;;;;2773752;51;8812;-59
2021/10/01 01:13:39;;;;;;;;;1.50;1.00;;;;;;;;2773394;51;9379;-61
2021/10/01 01:16:06;;;;;;;;;2.00;1.25;;;;;;;;2773361;51;8773;-60
2021/10/01 01:18:36;;;;;;;;;2.25;1.50;;;;;;;;2773158;51;9541;-60
2021/10/01 01:21:03;;;;;;;;;1.00;1.00;;;;;;;;2773398;51;8757;-60
2021/10/01 01:23:47;;;;;;;;;0.75;0.75;;;;;;;;2773572;51;8769;-57
2021/10/01 01:26:25;;;;;;;;;0.50;0.50;;;;;;;;2773148;51;9035;-59
2021/10/01 01:29:09;;;;;;;;;1.00;1.00;;;;;;;;2773642;51;8781;-59
2021/10/01 01:31:37;;;;;;;;;0.75;0.75;;;;;;;;2773648;51;8801;-60
2021/10/01 01:34:03;;;;;;;;;1.00;1.00;;;;;;;;2773693;51;8769;-58
2021/10/01 01:36:29;;;;;;;;;1.67;0.67;;;;;;;;2773144;51;8800;-60
2021/10/01 01:38:57;;;;;;;;;1.75;1.75;;;;;;;;2773180;51;9421;-60
2021/10/01 01:41:24;;;;;;;;;1.00;1.00;;;;;;;;2773425;51;8768;-60
2021/10/01 01:43:51;;;;;;;;;1.00;1.00;;;;;;;;2773447;51;8773;-60
2021/10/01 01:46:17;;;;;;;;;1.00;1.00;;;;;;;;2773447;51;8773;-59
2021/10/01 01:48:43;;;;;;;;;2.75;1.00;;;;;;;;2773227;51;8781;-59
2021/10/01 01:51:10;;;;;;;;;1.00;1.00;;;;;;;;2773138;51;8788;-59
2021/10/01 01:53:36;;;;;;;;;2.00;1.00;;;;;;;;2773265;51;8783;-59
2021/10/01 01:56:04;;;;;;;;;2.00;2.00;;;;;;;;2773130;51;8810;-60
2021/10/01 01:58:30;;;;;;;;;2.25;1.00;;;;;;;;2773390;51;8887;-60
2021/10/01 02:00:56;;;;;;;;;0.50;0.50;;;;;;;;2773036;51;8793;-58
2021/10/01 02:03:23;;;;;;;;;1.00;1.00;;;;;;;;2773245;51;8775;-59
2021/10/01 02:05:49;;;;;;;;;1.50;1.50;;;;;;;;2773273;51;8769;-59
2021/10/01 02:08:15;;;;;;;;;1.00;1.00;;;;;;;;2772927;51;8867;-59
2021/10/01 02:10:41;;;;;;;;;3.00;2.00;;;;;;;;2773549;51;8821;-59
2021/10/01 02:13:08;;;;;;;;;2.00;2.00;;;;;;;;2773039;51;8801;-60
2021/10/01 02:15:34;;;;;;;;;3.00;2.00;;;;;;;;2773126;51;8833;-59
2021/10/01 02:18:01;;;;;;;;;3.00;2.00;;;;;;;;2773453;51;8927;-59
2021/10/01 02:20:28;;;;;;;;;1.00;1.00;;;;;;;;2772986;51;8785;-58
2021/10/01 02:22:54;;;;;;;;;2.25;1.00;;;;;;;;2773091;51;8801;-58
2021/10/01 02:28:05;;;;;;;;;0.00;0.00;;;;;;;;2773136;51;8772;-59
2021/10/01 02:30:33;;;;;;;;;2.50;1.50;;;;;;;;2773286;51;8769;-59
2021/10/01 02:33:01;;;;;;;;;2.50;2.50;;;;;;;;2773088;51;8777;-59
2021/10/01 02:35:26;;;;;;;;;1.00;1.00;;;;;;;;2772777;51;8807;-59
2021/10/01 02:37:52;;;;;;;;;1.00;1.00;;;;;;;;2772971;51;8773;-58
2021/10/01 02:40:17;;;;;;;;;2.00;0.33;;;;;;;;2773490;51;8773;-59
2021/10/01 02:42:43;;;;;;;;;1.67;1.00;;;;;;;;2773189;51;8781;-59
2021/10/01 02:45:10;;;;;;;;;1.67;1.67;;;;;;;;2773257;51;8777;-60
2021/10/01 02:47:35;;;;;;;;;2.00;0.75;;;;;;;;2773468;51;8800;-59
2021/10/01 02:50:05;;;;;;;;;3.33;2.00;;;;;;;;2775389;51;8792;-59
2021/10/01 02:52:50;;;;;;;;;5.75;1.50;;;;;;;;2773721;51;11553;-59
2021/10/01 02:55:17;;;;;;;;;3.75;2.00;;;;;;;;2773203;51;8789;-58
2021/10/01 02:57:56;;;;;;;;;3.00;2.25;;;;;;;;2772945;51;8785;-59
2021/10/01 03:00:22;;;;;;;;;3.00;2.75;;;;;;;;2772864;51;8769;-59
2021/10/01 03:02:49;;;;;;;;;3.25;2.50;;;;;;;;2772953;51;8897;-60
2021/10/01 03:05:15;;;;;;;;;1.50;1.50;;;;;;;;2772681;51;8781;-58
2021/10/01 03:07:42;;;;;;;;;3.00;2.25;;;;;;;;2772985;51;8765;-59
2021/10/01 03:10:08;;;;;;;;;2.50;1.75;;;;;;;;2772784;51;8777;-58
2021/10/01 03:12:34;;;;;;;;;3.25;2.00;;;;;;;;2772807;51;8811;-58
2021/10/01 03:15:03;;;;;;;;;2.00;1.67;;;;;;;;2772771;51;8765;-59
2021/10/01 03:17:30;;;;;;;;;1.50;1.00;;;;;;;;2772716;51;8753;-59
2021/10/01 03:19:56;;;;;;;;;1.00;1.00;;;;;;;;2772627;51;8757;-59
2021/10/01 03:22:22;;;;;;;;;2.00;2.00;;;;;;;;2772832;51;8897;-60
2021/10/01 03:24:49;;;;;;;;;1.75;1.00;;;;;;;;2772927;51;8753;-58
2021/10/01 03:27:15;;;;;;;;;1.25;1.25;;;;;;;;2772928;51;8745;-59
2021/10/01 03:29:41;;;;;;;;;3.00;2.00;;;;;;;;2772645;51;8772;-58
2021/10/01 03:32:06;;;;;;;;;2.00;2.00;;;;;;;;2772558;51;11608;-59
2021/10/01 03:34:32;;;;;;;;;2.00;1.00;;;;;;;;2772950;51;8776;-59
2021/10/01 03:36:58;;;;;;;;;1.33;1.33;;;;;;;;2771974;51;12110;-59
2021/10/01 03:39:23;;;;;;;;;1.00;1.00;;;;;;;;2772853;51;8800;-61
2021/10/01 03:41:49;;;;;;;;;2.00;1.00;;;;;;;;2777287;51;8879;-60
2021/10/01 03:44:15;;;;;;;;;2.00;2.00;;;;;;;;2772577;51;8765;-60
2021/10/01 03:46:41;;;;;;;;;2.00;2.00;;;;;;;;2772779;51;8783;-59
2021/10/01 03:49:06;;;;;;;;;2.00;1.00;;;;;;;;2773827;51;8870;-60
2021/10/01 03:51:32;;;;;;;;;1.00;1.00;;;;;;;;2773483;51;8858;-59
2021/10/01 03:53:58;;;;;;;;;2.67;1.00;;;;;;;;2772853;51;8772;-60
2021/10/01 03:56:24;;;;;;;;;1.50;1.50;;;;;;;;2773813;51;8789;-60
2021/10/01 03:58:49;;;;;;;;;3.00;2.00;;;;;;;;2773366;51;8777;-60
2021/10/01 04:01:15;;;;;;;;;1.00;1.00;;;;;;;;2773765;51;8795;-58
2021/10/01 04:03:41;;;;;;;;;1.33;1.00;;;;;;;;2773371;51;8757;-58
2021/10/01 04:06:07;;;;;;;;;1.00;1.00;;;;;;;;2773598;51;9386;-59
2021/10/01 04:08:32;;;;;;;;;0.67;0.67;;;;;;;;2773775;51;8769;-60
2021/10/01 04:10:58;;;;;;;;;2.67;2.00;;;;;;;;2773289;51;8903;-60
2021/10/01 04:13:24;;;;;;;;;3.33;2.67;;;;;;;;2773623;51;9614;-62
2021/10/01 04:15:50;;;;;;;;;1.75;1.75;;;;;;;;2773533;51;8781;-60
2021/10/01 04:18:16;;;;;;;;;3.00;1.50;;;;;;;;2773249;51;8809;-59
2021/10/01 04:20:44;;;;;;;;;1.00;1.00;;;;;;;;2773777;51;9390;-60
2021/10/01 04:23:10;;;;;;;;;1.00;1.00;;;;;;;;2773783;51;8773;-59
2021/10/01 04:25:36;;;;;;;;;4.50;2.00;;;;;;;;2773731;51;8807;-60
2021/10/01 04:28:04;;;;;;;;;2.00;1.00;;;;;;;;2773439;51;8761;-59
2021/10/01 04:30:30;;;;;;;;;2.00;1.00;;;;;;;;2773239;51;9538;-59
2021/10/01 04:33:01;;;;;;;;;1.33;1.00;;;;;;;;2773386;51;8903;-61
2021/10/01 04:35:27;;;;;;;;;1.00;1.00;;;;;;;;2773656;51;11374;-60
2021/10/01 04:37:53;;;;;;;;;1.00;1.00;;;;;;;;2773253;51;8939;-61
2021/10/01 04:40:18;;;;;;;;;2.67;2.67;;;;;;;;2773357;51;8774;-58
2021/10/01 04:42:44;;;;;;;;;2.00;2.00;;;;;;;;2773815;51;9417;-60
2021/10/01 04:45:09;;;;;;;;;2.00;2.00;;;;;;;;2778456;51;8781;-59
2021/10/01 04:47:37;;;;;;;;;2.67;1.33;;;;;;;;2773445;51;8761;-59
2021/10/01 04:50:04;;;;;;;;;5.50;3.25;;;;;;;;2773370;51;8769;-60
2021/10/01 04:52:31;;;;;;;;;6.75;4.25;;;;;;;;2773349;51;9414;-60
2021/10/01 04:54:56;;;;;;;;;7.25;5.00;;;;;;;;2773555;51;8838;-60
2021/10/01 04:57:22;;;;;;;;;4.00;3.67;;;;;;;;2773339;51;8772;-58
2021/10/01 04:59:47;;;;;;;;;4.33;3.33;;;;;;;;2777898;51;8761;-60
2021/10/01 05:02:13;;;;;;;;;5.00;3.75;;;;;;;;2773329;51;8761;-59
2021/10/01 05:04:38;;;;;;;;;3.00;3.00;;;;;;;;2773416;51;8761;-60
2021/10/01 05:07:04;;;;;;;;;4.25;3.25;;;;;;;;2773301;51;8769;-60
2021/10/01 05:09:30;;;;;;;;;3.75;3.50;;;;;;;;2773408;51;8785;-59
2021/10/01 05:11:55;;;;;;;;;3.00;3.00;;;;;;;;2773775;51;9386;-61
2021/10/01 05:14:21;;;;;;;;;1.75;1.75;;;;;;;;2773170;51;8784;-60
2021/10/01 05:16:47;;;;;;;;;2.75;2.75;;;;;;;;2773243;51;8785;-60
2021/10/01 05:19:12;;;;;;;;;9.25;5.00;;;;;;;;2773434;51;8761;-59
2021/10/01 05:21:38;;;;;;;;;3.25;3.25;;;;;;;;2773373;51;8777;-59
2021/10/01 05:24:04;;;;;;;;;2.00;2.00;;;;;;;;2773227;51;9421;-60
2021/10/01 05:26:29;;;;;;;;;3.25;3.25;;;;;;;;2773460;51;8873;-58
2021/10/01 05:28:55;;;;;;;;;4.00;3.00;;;;;;;;2773066;51;8926;-60
2021/10/01 05:31:21;;;;;;;;;4.40;3.60;;;;;;;;2773370;51;8781;-60
2021/10/01 05:33:47;;;;;;;;;3.25;2.50;;;;;;;;2773391;51;9444;-59
2021/10/01 05:36:12;;;;;;;;;5.00;3.50;;;;;;;;2772986;51;9478;-59
2021/10/01 05:38:38;;;;;;;;;1.50;1.50;;;;;;;;2773495;51;8855;-61
2021/10/01 05:41:04;;;;;;;;;4.00;3.00;;;;;;;;2773565;51;8765;-60
2021/10/01 05:43:29;;;;;;;;;4.50;3.00;;;;;;;;2773138;51;8903;-60
2021/10/01 05:45:57;;;;;;;;;1.75;1.75;;;;;;;;2773273;51;8859;-61
2021/10/01 05:48:25;;;;;;;;;0.60;0.00;;;;;;;;2772647;51;8953;-61
2021/10/01 05:50:55;;;;;;;;;3.00;3.00;;;;;;;;2773407;51;8789;-61
2021/10/01 05:56:11;;;;;;;;;1.60;1.60;;;;;;;;2770957;51;8778;-57
2021/10/01 05:58:37;;;;;;;;;4.00;1.60;;;;;;;;2778439;51;8791;-58
2021/10/01 06:01:03;;;;;;;;;2.00;2.00;;;;;;;;2773031;51;8781;-58
2021/10/01 06:03:29;;;;;;;;;2.80;2.40;;;;;;;;2775683;51;8915;-58
2021/10/01 06:05:55;;;;;;;;;2.75;2.00;;;;;;;;2779479;51;9039;-58
2021/10/01 06:08:21;;;;;;;;;2.00;2.00;;;;;;;;2779337;51;8800;-57
2021/10/01 06:10:46;;;;;;;;;2.00;0.00;;;;;;;;2778977;51;8899;-58
2021/10/01 06:13:12;;;;;;;;;2.00;2.00;;;;;;;;2773620;51;8765;-57
2021/10/01 06:15:37;;;;;;;;;0.75;0.75;;;;;;;;2773197;51;8817;-59
2021/10/01 06:18:03;;;;;;;;;3.00;2.00;;;;;;;;2773418;51;8761;-59
2021/10/01 06:20:29;;;;;;;;;1.00;1.00;;;;;;;;2773043;51;9563;-57
2021/10/01 06:22:54;;;;;;;;;1.20;1.20;;;;;;;;2772995;51;8813;-58
2021/10/01 06:25:20;;;;;;;;;1.25;1.25;;;;;;;;2772967;51;8787;-57
2021/10/01 06:27:46;;;;;;;;;2.20;2.00;;;;;;;;2772941;51;8894;-58
2021/10/01 06:30:11;;;;;;;;;2.00;2.00;;;;;;;;2778188;51;8778;-57
2021/10/01 06:32:38;;;;;;;;;4.00;4.00;;;;;;;;2779037;51;8759;-56
2021/10/01 06:35:04;;;;;;;;;1.80;1.80;;;;;;;;2779011;51;8762;-57
2021/10/01 06:37:30;;;;;;;;;3.40;3.40;;;;;;;;2779144;51;8900;-57
2021/10/01 06:39:55;;;;;;;;;2.00;2.00;;;;;;;;2779145;51;8763;-57
2021/10/01 06:42:22;;;;;;;;;1.75;1.75;;;;;;;;2778995;51;8763;-59
2021/10/01 06:44:50;;;;;;;;;2.00;2.00;;;;;;;;2779222;51;8762;-57
2021/10/01 06:47:21;;;;;;;;;2.60;1.00;;;;;;;;2778981;51;9423;-57
2021/10/01 08:19:39;;;;;;;;;1.20;1.20;;;;;;;;2779467;51;8759;-58
2021/10/01 08:22:05;;;;;;;;;0.75;0.50;;;;;;;;2779413;51;8783;-56
2021/10/01 08:24:31;;;;;;;;;2.00;1.00;;;;;;;;2779455;51;8771;-56
2021/10/01 08:26:57;;;;;;;;;1.00;1.00;;;;;;;;2780032;51;8770;-58
2021/10/01 08:29:23;;;;;;;;;0.00;0.00;;;;;;;;2779386;51;8766;-58
2021/10/01 08:31:49;;;;;;;;;0.00;0.00;;;;;;;;2779922;51;8815;-60
2021/10/01 08:34:16;;;;;;;;;2.00;2.00;;;;;;;;2778949;51;8762;-58
2021/10/01 08:36:42;;;;;;;;;0.00;0.00;;;;;;;;2779464;51;8777;-59
2021/10/01 08:39:09;;;;;;;;;0.00;0.00;;;;;;;;2779601;51;8770;-57
2021/10/01 08:41:36;;;;;;;;;0.40;0.40;;;;;;;;2779523;51;8767;-57
2021/10/01 08:44:01;;;;;;;;;2.60;1.60;;;;;;;;2779347;51;8754;-58
2021/10/01 08:46:27;;;;;;;;;0.00;0.00;;;;;;;;2779544;51;8786;-58
2021/10/01 08:48:53;;;;;;;;;0.00;0.00;;;;;;;;2779370;51;8774;-60
2021/10/01 08:51:18;;;;;;;;;2.00;0.00;;;;;;;;2779720;51;8794;-58
2021/10/01 08:53:45;;;;;;;;;0.00;0.00;;;;;;;;2779686;51;9392;-58
2021/10/01 08:56:11;;;;;;;;;0.00;0.00;;;;;;;;2779355;51;9483;-58
2021/10/01 08:58:37;;;;;;;;;0.00;0.00;;;;;;;;2779483;51;8874;-59
2021/10/01 09:01:03;;;;;;;;;0.00;0.00;;;;;;;;2779869;51;8767;-58
2021/10/01 09:03:29;;;;;;;;;0.00;0.00;;;;;;;;2776304;51;8753;-61
2021/10/01 09:05:55;;;;;;;;;0.00;0.00;;;;;;;;2773318;51;8777;-58
2021/10/01 09:08:22;;;;;;;;;0.00;0.00;;;;;;;;2768353;51;9845;-58
2021/10/01 09:11:02;;;;;;;;;0.00;0.00;;;;;;;;2767442;51;8838;-58
2021/10/01 09:13:28;;;;;;;;;0.00;0.00;;;;;;;;2767809;51;8803;-59
2021/10/01 09:16:13;;;;;;;;;0.00;0.00;;;;;;;;2767326;51;8791;-58
2021/10/01 09:18:39;;;;;;;;;0.00;0.00;;;;;;;;2767429;51;8764;-57
2021/10/01 09:21:12;;;;;;;;;0.00;0.00;;;;;;;;2767422;51;8898;-58
2021/10/01 09:23:43;;;;;;;;;0.00;0.00;;;;;;;;2767459;51;8786;-58
2021/10/01 09:26:19;;;;;;;;;0.00;0.00;;;;;;;;2767619;51;9405;-59
2021/10/01 09:29:07;;;;;;;;;0.20;0.00;;;;;;;;2767558;51;8776;-60
2021/10/01 09:31:43;;;;;;;;;2.40;1.60;;;;;;;;2767386;51;8892;-61
2021/10/01 09:34:10;;;;;;;;;0.00;0.00;;;;;;;;2767194;51;8780;-60
2021/10/01 09:36:37;;;;;;;;;0.00;0.00;;;;;;;;2767120;51;8775;-59
2021/10/01 09:39:03;;;;;;;;;0.00;0.00;;;;;;;;2767327;51;8784;-59
2021/10/01 09:41:31;;;;;;;;;1.00;1.00;;;;;;;;2767155;51;8771;-60
2021/10/01 09:44:10;;;;;;;;;1.20;1.20;;;;;;;;2767270;51;8772;-59
2021/10/01 09:46:36;;;;;;;;;1.60;1.60;;;;;;;;2766788;51;8779;-60
2021/10/01 09:49:03;;;;;;;;;1.00;1.00;;;;;;;;2766929;51;8783;-58
2021/10/01 09:51:29;;;;;;;;;1.00;1.00;;;;;;;;2766721;51;9499;-61
2021/10/01 09:53:54;;;;;;;;;0.60;0.60;;;;;;;;2767000;51;8783;-58
2021/10/01 09:56:27;;;;;;;;;1.00;1.00;;;;;;;;2766967;51;8784;-59
2021/10/01 09:59:06;;;;;;;;;0.00;0.00;;;;;;;;2767026;51;8779;-59
2021/10/01 10:01:32;;;;;;;;;0.00;0.00;;;;;;;;2767167;51;8802;-58
2021/10/01 10:03:58;;;;;;;;;0.00;0.00;;;;;;;;2766678;51;8780;-57
2021/10/01 10:06:23;;;;;;;;;0.00;0.00;;;;;;;;2766689;51;8816;-59
2021/10/01 10:08:49;;;;;;;;;0.00;0.00;;;;;;;;2766339;51;8890;-58
2021/10/01 10:11:16;;;;;;;;;0.00;0.00;;;;;;;;2767631;51;8897;-59
2021/10/01 10:13:44;;;;;;;;;0.20;0.20;;;;;;;;2767123;51;8798;-59
2021/10/01 10:16:14;;;;;;;;;1.00;1.00;;;;;;;;2767040;51;8779;-58
2021/10/01 10:18:40;;;;;;;;;0.20;0.20;;;;;;;;2767114;51;8768;-58
2021/10/01 10:21:06;;;;;;;;;1.00;1.00;;;;;;;;2767095;51;8775;-57
2021/10/01 10:23:32;;;;;;;;;1.00;1.00;;;;;;;;2767040;51;8881;-61
2021/10/01 10:25:57;;;;;;;;;2.50;2.50;;;;;;;;2767074;51;8795;-60
2021/10/01 10:28:23;;;;;;;;;0.25;0.25;;;;;;;;2767025;51;8800;-58
2021/10/01 10:30:52;;;;;;;;;1.00;0.50;;;;;;;;2766907;51;8779;-58
2021/10/01 10:33:50;;;;;;;;;0.00;0.00;;;;;;;;2767440;51;8784;-58
2021/10/01 10:36:35;;;;;;;;;0.20;0.20;;;;;;;;2759782;51;8799;-57
2021/10/01 10:39:12;;;;;;;;;1.00;1.00;;;;;;;;2767118;51;8903;-58
2021/10/01 10:41:43;;;;;;;;;2.00;1.00;;;;;;;;2766849;51;8772;-60
2021/10/01 10:44:09;;;;;;;;;1.60;0.60;;;;;;;;2767292;51;8782;-59
2021/10/01 10:46:34;;;;;;;;;2.00;2.00;;;;;;;;2767161;51;8788;-58
2021/10/01 10:49:21;;;;;;;;;0.00;0.00;;;;;;;;2767050;51;8787;-59
2021/10/01 10:52:16;;;;;;;;;1.00;1.00;;;;;;;;2767463;51;8804;-61
2021/10/01 10:54:43;;;;;;;;;1.80;1.80;;;;;;;;2767318;51;8787;-60
2021/10/01 10:57:18;;;;;;;;;1.00;1.00;;;;;;;;2766700;51;8796;-59
2021/10/01 10:59:43;;;;;;;;;1.00;1.00;;;;;;;;2767035;51;8775;-61
2021/10/01 11:02:19;;;;;;;;;1.25;1.25;;;;;;;;2766867;51;8776;-59
2021/10/01 11:04:48;;;;;;;;;0.00;0.00;;;;;;;;2761098;51;8888;-57
2021/10/01 11:07:40;;;;;;;;;0.40;0.40;;;;;;;;2761022;52;8766;-58
2021/10/01 11:10:25;;;;;;;;;0.60;0.60;;;;;;;;2760487;52;8790;-60
2021/10/01 11:12:50;;;;;;;;;1.00;1.00;;;;;;;;2760906;52;8778;-60
2021/10/01 11:15:17;;;;;;;;;0.25;0.25;;;;;;;;2760932;52;8790;-57
2021/10/01 11:17:43;;;;;;;;;1.00;1.00;;;;;;;;2760869;52;9444;-58
2021/10/01 11:20:28;;;;;;;;;3.50;2.00;;;;;;;;2760889;52;8770;-58
2021/10/01 11:22:54;;;;;;;;;0.00;0.00;;;;;;;;2760570;52;8758;-58
2021/10/01 11:25:23;;;;;;;;;1.75;1.00;;;;;;;;2760665;51;8805;-59
2021/10/01 11:27:49;;;;;;;;;1.00;1.00;;;;;;;;2760832;52;8770;-58
2021/10/01 11:30:15;;;;;;;;;2.60;1.40;;;;;;;;2760740;52;8762;-58
2021/10/01 11:32:40;;;;;;;;;1.75;1.75;;;;;;;;2760542;52;8778;-57
2021/10/01 11:35:07;;;;;;;;;1.00;1.00;;;;;;;;2760756;52;8790;-57
2021/10/01 11:37:37;;;;;;;;;0.00;0.00;;;;;;;;2760630;52;8766;-59
2021/10/01 11:40:04;;;;;;;;;1.00;1.00;;;;;;;;2760563;52;9384;-59
2021/10/01 11:42:34;;;;;;;;;0.40;0.40;;;;;;;;2760720;52;8778;-58
2021/10/01 11:45:06;;;;;;;;;1.00;1.00;;;;;;;;2760700;52;8763;-59
2021/10/01 11:47:31;;;;;;;;;0.60;0.60;;;;;;;;2760692;52;8755;-57
2021/10/01 11:49:58;;;;;;;;;0.25;0.25;;;;;;;;2760487;51;8786;-58
2021/10/01 11:52:25;;;;;;;;;1.00;1.00;;;;;;;;2760461;51;8890;-58
2021/10/01 11:54:55;;;;;;;;;0.00;0.00;;;;;;;;2760777;51;8763;-58
2021/10/01 11:57:21;;;;;;;;;1.80;1.80;;;;;;;;2760605;51;8908;-57
2021/10/01 11:59:48;;;;;;;;;1.00;1.00;;;;;;;;2760400;52;8812;-57
2021/10/01 12:02:33;;;;;;;;;4.40;4.40;;;;;;;;2760627;51;8782;-59
2021/10/01 12:05:16;;;;;;;;;3.60;3.00;;;;;;;;2766667;51;8772;-57
2021/10/01 12:07:45;;;;;;;;;2.20;2.20;;;;;;;;2766931;51;8760;-59
2021/10/01 12:10:11;;;;;;;;;3.00;3.00;;;;;;;;2767246;51;8799;-57
2021/10/01 12:12:37;;;;;;;;;2.00;1.00;;;;;;;;2767296;51;8772;-59
2021/10/01 12:15:02;;;;;;;;;1.00;1.00;;;;;;;;2767422;51;8794;-57
2021/10/01 12:17:36;;;;;;;;;2.00;2.00;;;;;;;;2767184;51;8896;-59
2021/10/01 12:20:02;;;;;;;;;1.40;1.20;;;;;;;;2767442;51;8792;-62
2021/10/01 12:22:32;;;;;;;;;4.00;2.40;;;;;;;;2767304;51;8779;-58
2021/10/01 12:24:58;;;;;;;;;1.00;1.00;;;;;;;;2767759;51;8775;-59
2021/10/01 12:27:41;;;;;;;;;2.00;1.00;;;;;;;;2767167;51;8878;-60
2021/10/01 12:30:07;;;;;;;;;1.00;1.00;;;;;;;;2767627;51;10015;-58
2021/10/01 12:32:34;;;;;;;;;1.00;1.00;;;;;;;;2767312;51;8783;-58
2021/10/01 12:35:00;;;;;;;;;2.40;1.40;;;;;;;;2767205;51;8876;-57
2021/10/01 12:37:29;;;;;;;;;1.00;1.00;;;;;;;;2767215;51;8901;-57
2021/10/01 12:39:56;;;;;;;;;1.00;1.00;;;;;;;;2767076;51;8970;-56
2021/10/01 12:42:23;;;;;;;;;1.00;1.00;;;;;;;;2767307;51;8898;-58
2021/10/01 12:45:05;;;;;;;;;1.00;1.00;;;;;;;;2767615;51;8779;-61
2021/10/01 12:47:35;;;;;;;;;1.60;1.00;;;;;;;;2767698;51;8771;-58
2021/10/01 12:50:05;;;;;;;;;1.20;1.20;;;;;;;;2767400;51;8771;-58
2021/10/01 12:52:32;;;;;;;;;1.80;1.80;;;;;;;;2767285;51;8851;-58
2021/10/01 12:55:04;;;;;;;;;2.60;2.60;;;;;;;;2767450;51;8851;-58
2021/10/01 12:57:29;;;;;;;;;2.00;1.00;;;;;;;;2767191;51;8825;-57
2021/10/01 12:59:56;;;;;;;;;0.50;0.50;;;;;;;;2767142;51;8784;-58
2021/10/01 13:02:40;;;;;;;;;2.60;2.00;;;;;;;;2766980;51;8827;-58
2021/10/01 13:05:07;;;;;;;;;1.00;1.00;;;;;;;;2767605;51;8752;-56
2021/10/01 13:07:34;;;;;;;;;2.00;1.00;;;;;;;;2767278;51;8780;-59
2021/10/01 13:10:19;;;;;;;;;1.60;1.60;;;;;;;;2766938;51;8934;-59
2021/10/01 13:12:56;;;;;;;;;1.20;1.20;;;;;;;;2765676;51;9021;-59
2021/10/01 13:15:25;;;;;;;;;1.80;1.00;;;;;;;;2767076;51;8784;-58
2021/10/01 13:18:09;;;;;;;;;1.80;0.40;;;;;;;;2767108;51;8784;-59
2021/10/01 13:20:36;;;;;;;;;2.00;0.80;;;;;;;;2767231;51;8768;-58
2021/10/01 13:23:09;;;;;;;;;1.20;1.00;;;;;;;;2767362;51;8898;-58
2021/10/01 13:25:36;;;;;;;;;0.20;0.20;;;;;;;;2767556;51;8764;-57
2021/10/01 13:28:03;;;;;;;;;1.00;1.00;;;;;;;;2767296;51;8763;-58
2021/10/01 13:30:29;;;;;;;;;1.60;1.60;;;;;;;;2767254;51;8775;-57
2021/10/01 13:32:55;;;;;;;;;2.40;1.40;;;;;;;;2767290;51;8795;-58
2021/10/01 13:35:21;;;;;;;;;0.60;0.20;;;;;;;;2767015;51;8887;-56
2021/10/01 13:37:47;;;;;;;;;0.75;0.75;;;;;;;;2766916;51;8771;-59
2021/10/01 13:40:13;;;;;;;;;1.20;1.20;;;;;;;;2766931;51;8805;-59
2021/10/01 13:42:39;;;;;;;;;1.00;1.00;;;;;;;;2766917;51;8866;-58
2021/10/01 13:45:06;;;;;;;;;1.00;1.00;;;;;;;;2767059;51;8767;-57
2021/10/01 13:47:32;;;;;;;;;0.60;0.60;;;;;;;;2767264;51;8913;-57
2021/10/01 13:49:58;;;;;;;;;0.80;0.80;;;;;;;;2766855;51;8791;-58
2021/10/01 13:52:24;;;;;;;;;1.00;1.00;;;;;;;;2766888;51;8921;-57
2021/10/01 13:54:49;;;;;;;;;1.20;1.20;;;;;;;;2767134;51;8779;-57
2021/10/01 13:57:15;;;;;;;;;1.00;1.00;;;;;;;;2766919;51;9437;-57
2021/10/01 13:59:42;;;;;;;;;1.00;1.00;;;;;;;;2766952;51;8764;-57
2021/10/01 14:02:08;;;;;;;;;2.00;2.00;;;;;;;;2767162;51;8783;-59
2021/10/01 14:04:34;;;;;;;;;2.00;2.00;;;;;;;;2766839;51;8795;-56
2021/10/01 14:06:59;;;;;;;;;1.00;1.00;;;;;;;;2766883;51;8802;-60
2021/10/01 14:09:25;;;;;;;;;3.00;2.00;;;;;;;;2766792;51;8776;-57
2021/10/01 14:11:51;;;;;;;;;1.75;1.75;;;;;;;;2766929;51;9479;-57
2021/10/01 14:14:16;;;;;;;;;8.50;6.75;;;;;;;;2766955;51;8794;-57
2021/10/01 14:16:42;;;;;;;;;4.00;4.00;;;;;;;;2766932;51;8876;-59
2021/10/01 14:19:07;;;;;;;;;3.50;3.00;;;;;;;;2766860;51;8788;-57
2021/10/01 14:21:33;;;;;;;;;3.75;2.75;;;;;;;;2767040;51;8763;-58
2021/10/01 14:23:59;;;;;;;;;3.00;2.75;;;;;;;;2766862;51;8918;-60
2021/10/01 14:26:26;;;;;;;;;3.00;3.00;;;;;;;;2767450;51;8859;-59
2021/10/01 14:28:52;;;;;;;;;1.60;1.60;;;;;;;;2767190;51;9060;-59
2021/10/01 14:31:18;;;;;;;;;2.00;2.00;;;;;;;;2767220;51;8781;-62
2021/10/01 14:33:44;;;;;;;;;2.25;2.00;;;;;;;;2768984;51;9501;-58
2021/10/01 14:36:09;;;;;;;;;3.50;2.75;;;;;;;;2767788;51;11462;-58
2021/10/01 14:38:35;;;;;;;;;3.75;2.50;;;;;;;;2767756;51;8905;-61
2021/10/01 14:41:01;;;;;;;;;2.00;2.00;;;;;;;;2768553;51;8898;-60
2021/10/01 14:43:27;;;;;;;;;1.00;1.00;;;;;;;;2769097;51;8809;-57
2021/10/01 14:45:53;;;;;;;;;2.00;2.00;;;;;;;;2768673;51;8804;-58
2021/10/01 14:48:18;;;;;;;;;1.20;1.20;;;;;;;;2768747;51;8788;-58
2021/10/01 14:50:44;;;;;;;;;2.00;2.00;;;;;;;;2768860;51;8810;-60
2021/10/01 14:53:10;;;;;;;;;1.60;1.60;;;;;;;;2768657;51;8776;-60
2021/10/01 14:55:36;;;;;;;;;1.00;1.00;;;;;;;;2768594;51;9470;-58
2021/10/01 14:58:01;;;;;;;;;2.25;1.00;;;;;;;;2768116;51;8784;-58
2021/10/01 15:00:27;;;;;;;;;1.75;1.75;;;;;;;;2768341;51;8795;-58
2021/10/01 15:02:54;;;;;;;;;1.75;1.75;;;;;;;;2767958;51;8787;-57
2021/10/01 15:05:20;;;;;;;;;1.00;1.00;;;;;;;;2768556;51;8749;-59
2021/10/01 15:07:45;;;;;;;;;1.50;1.50;;;;;;;;2767458;51;8790;-58
2021/10/01 15:10:11;;;;;;;;;0.50;0.50;;;;;;;;2768073;51;9468;-57
2021/10/01 15:12:37;;;;;;;;;1.50;1.50;;;;;;;;2768547;51;8785;-57
2021/10/01 15:15:07;;;;;;;;;1.00;1.00;;;;;;;;2768499;51;8795;-57
2021/10/01 15:17:33;;;;;;;;;1.20;1.20;;;;;;;;2768800;51;8804;-57
2021/10/01 15:19:59;;;;;;;;;1.80;1.80;;;;;;;;2768250;51;8793;-58
2021/10/01 15:22:25;;;;;;;;;2.00;2.00;;;;;;;;2768651;51;8826;-57
2021/10/01 15:24:50;;;;;;;;;2.50;1.25;;;;;;;;2768232;51;8890;-58
2021/10/01 15:27:16;;;;;;;;;1.00;1.00;;;;;;;;2768518;51;8800;-56
2021/10/01 15:30:00;;;;;;;;;2.00;1.00;;;;;;;;2768614;51;8859;-59
2021/10/01 15:32:26;;;;;;;;;1.00;1.00;;;;;;;;2768529;51;8792;-59
2021/10/01 15:34:52;;;;;;;;;1.00;1.00;;;;;;;;2767709;51;9581;-59
2021/10/01 15:37:18;;;;;;;;;0.00;0.00;;;;;;;;2768599;51;8821;-59
2021/10/01 15:39:44;;;;;;;;;4.20;3.00;;;;;;;;2768549;51;8974;-59
2021/10/01 15:42:09;;;;;;;;;1.00;1.00;;;;;;;;2768170;51;8912;-58
2021/10/01 15:44:36;;;;;;;;;2.00;0.50;;;;;;;;2769242;51;9425;-59
2021/10/01 15:47:02;;;;;;;;;1.40;1.40;;;;;;;;2769786;51;8891;-59
2021/10/01 15:49:28;;;;;;;;;0.60;0.60;;;;;;;;2769828;51;8802;-58
2021/10/01 15:51:54;;;;;;;;;1.75;1.75;;;;;;;;2773837;51;8769;-58
2021/10/01 15:54:19;;;;;;;;;1.00;1.00;;;;;;;;2773322;51;8769;-56
2021/10/01 15:56:45;;;;;;;;;2.25;1.75;;;;;;;;2773580;51;9537;-58
2021/10/01 15:59:11;;;;;;;;;5.60;2.00;;;;;;;;2769600;51;8783;-61
2021/10/01 16:01:36;;;;;;;;;1.00;1.00;;;;;;;;2767100;51;8788;-61
2021/10/01 16:04:02;;;;;;;;;0.00;0.00;;;;;;;;2767127;51;8776;-62
2021/10/01 16:06:28;;;;;;;;;2.50;1.50;;;;;;;;2766519;51;8800;-60
2021/10/01 16:08:57;;;;;;;;;1.00;1.00;;;;;;;;2767125;51;11452;-58
2021/10/01 16:11:23;;;;;;;;;3.00;1.00;;;;;;;;2767237;51;8795;-58
2021/10/01 16:13:48;;;;;;;;;1.80;1.80;;;;;;;;2767014;51;8897;-59
2021/10/01 16:16:14;;;;;;;;;1.00;1.00;;;;;;;;2767214;51;8796;-60
2021/10/01 16:18:40;;;;;;;;;3.25;2.25;;;;;;;;2766835;51;8901;-60
2021/10/01 16:21:05;;;;;;;;;1.75;1.75;;;;;;;;2766966;51;8788;-61
2021/10/01 16:23:31;;;;;;;;;3.75;2.00;;;;;;;;2767118;51;8779;-59
2021/10/01 16:25:56;;;;;;;;;3.50;1.50;;;;;;;;2767226;51;9491;-60
2021/10/01 16:28:22;;;;;;;;;0.75;0.75;;;;;;;;2767011;51;8984;-59
2021/10/01 16:30:48;;;;;;;;;1.00;1.00;;;;;;;;2767104;51;8776;-59
2021/10/01 16:33:16;;;;;;;;;1.20;1.20;;;;;;;;2766787;51;8788;-62
2021/10/01 16:35:48;;;;;;;;;1.60;1.60;;;;;;;;2766600;51;8814;-64